sensor_id;sensor_type;location;lat;lon;timestamp;temperature;humidity
22568;DHT22;11450;50.818;4.382;2022-11-04T00:01:42;10.90;99.90
22568;DHT22;11450;50.818;4.382;2022-11-04T00:04:10;10.90;99.90
22568;DHT22;11450;50.818;4.382;2022-11-04T00:06:36;10.90;99.90
22568;DHT22;11450;50.818;4.382;2022-11-04T00:09:03;10.90;99.90
22568;DHT22;11450;50.818;4.382;2022-11-04T00:11:29;10.90;99.90
22568;DHT22;11450;50.818;4.382;2022-11-04T00:14:14;10.80;99.90
22568;DHT22;11450;50.818;4.382;2022-11-04T00:16:40;10.90;99.90
22568;DHT22;11450;50.818;4.382;2022-11-04T00:19:25;10.90;99.90
22568;DHT22;11450;50.818;4.382;2022-11-04T00:21:51;10.90;99.90
22568;DHT22;11450;50.818;4.382;2022-11-04T00:24:35;10.80;99.90
22568;DHT22;11450;50.818;4.382;2022-11-04T00:27:08;10.90;99.90
22568;DHT22;11450;50.818;4.382;2022-11-04T00:29:52;10.90;99.90
22568;DHT22;11450;50.818;4.382;2022-11-04T00:32:18;10.80;99.90
22568;DHT22;11450;50.818;4.382;2022-11-04T00:35:02;10.70;99.90
22568;DHT22;11450;50.818;4.382;2022-11-04T00:37:28;10.60;99.90
22568;DHT22;11450;50.818;4.382;2022-11-04T00:39:54;10.70;99.90
22568;DHT22;11450;50.818;4.382;2022-11-04T00:42:19;10.60;99.90
22568;DHT22;11450;50.818;4.382;2022-11-04T00:44:45;10.60;99.90
22568;DHT22;11450;50.818;4.382;2022-11-04T00:47:10;10.60;99.90
22568;DHT22;11450;50.818;4.382;2022-11-04T00:49:36;10.50;99.90
22568;DHT22;11450;50.818;4.382;2022-11-04T00:52:02;10.60;99.90
22568;DHT22;11450;50.818;4.382;2022-11-04T00:54:27;10.50;99.90
22568;DHT22;11450;50.818;4.382;2022-11-04T00:56:53;10.50;99.90
22568;DHT22;11450;50.818;4.382;2022-11-04T00:59:19;10.50;99.90
22568;DHT22;11450;50.818;4.382;2022-11-04T01:01:45;10.70;99.90
22568;DHT22;11450;50.818;4.382;2022-11-04T01:04:11;10.60;99.90
22568;DHT22;11450;50.818;4.382;2022-11-04T01:06:37;10.60;99.90
22568;DHT22;11450;50.818;4.382;2022-11-04T01:09:06;10.60;99.90
22568;DHT22;11450;50.818;4.382;2022-11-04T01:11:34;10.50;99.90
22568;DHT22;11450;50.818;4.382;2022-11-04T01:14:00;10.60;99.90
22568;DHT22;11450;50.818;4.382;2022-11-04T01:16:26;10.60;99.90
22568;DHT22;11450;50.818;4.382;2022-11-04T01:18:52;10.70;99.90
22568;DHT22;11450;50.818;4.382;2022-11-04T01:21:18;10.60;99.90
22568;DHT22;11450;50.818;4.382;2022-11-04T01:23:45;10.60;99.90
22568;DHT22;11450;50.818;4.382;2022-11-04T01:26:16;10.60;99.90
22568;DHT22;11450;50.818;4.382;2022-11-04T01:28:42;10.60;99.90
22568;DHT22;11450;50.818;4.382;2022-11-04T01:31:19;10.70;99.90
22568;DHT22;11450;50.818;4.382;2022-11-04T01:33:51;10.60;99.90
22568;DHT22;11450;50.818;4.382;2022-11-04T01:36:17;10.70;99.90
22568;DHT22;11450;50.818;4.382;2022-11-04T01:38:43;10.60;99.90
22568;DHT22;11450;50.818;4.382;2022-11-04T01:41:18;10.60;99.90
22568;DHT22;11450;50.818;4.382;2022-11-04T01:46:33;10.60;99.90
22568;DHT22;11450;50.818;4.382;2022-11-04T01:49:35;10.50;99.90
22568;DHT22;11450;50.818;4.382;2022-11-04T01:52:07;10.50;99.90
22568;DHT22;11450;50.818;4.382;2022-11-04T01:54:36;10.50;99.90
22568;DHT22;11450;50.818;4.382;2022-11-04T01:57:04;10.40;99.90
22568;DHT22;11450;50.818;4.382;2022-11-04T01:59:34;10.40;99.90
22568;DHT22;11450;50.818;4.382;2022-11-04T02:02:01;10.40;99.90
22568;DHT22;11450;50.818;4.382;2022-11-04T02:04:28;10.40;99.90
22568;DHT22;11450;50.818;4.382;2022-11-04T02:06:59;10.30;99.90
22568;DHT22;11450;50.818;4.382;2022-11-04T02:09:35;10.30;99.90
22568;DHT22;11450;50.818;4.382;2022-11-04T02:12:01;10.30;99.90
22568;DHT22;11450;50.818;4.382;2022-11-04T02:14:47;10.30;99.90
22568;DHT22;11450;50.818;4.382;2022-11-04T02:23:06;10.20;99.90
22568;DHT22;11450;50.818;4.382;2022-11-04T02:31:06;10.00;99.90
22568;DHT22;11450;50.818;4.382;2022-11-04T02:33:52;10.00;99.90
22568;DHT22;11450;50.818;4.382;2022-11-04T02:36:25;10.00;99.90
22568;DHT22;11450;50.818;4.382;2022-11-04T02:39:26;10.20;99.90
22568;DHT22;11450;50.818;4.382;2022-11-04T02:42:15;10.10;99.90
22568;DHT22;11450;50.818;4.382;2022-11-04T02:44:53;10.20;99.90
22568;DHT22;11450;50.818;4.382;2022-11-04T02:47:25;10.20;99.90
22568;DHT22;11450;50.818;4.382;2022-11-04T02:52:28;10.30;99.90
22568;DHT22;11450;50.818;4.382;2022-11-04T02:55:02;10.30;99.90
22568;DHT22;11450;50.818;4.382;2022-11-04T02:57:31;10.30;99.90
22568;DHT22;11450;50.818;4.382;2022-11-04T03:00:03;10.40;99.90
22568;DHT22;11450;50.818;4.382;2022-11-04T03:02:44;10.40;99.90
22568;DHT22;11450;50.818;4.382;2022-11-04T03:05:13;10.40;99.90
22568;DHT22;11450;50.818;4.382;2022-11-04T03:07:41;10.30;99.90
22568;DHT22;11450;50.818;4.382;2022-11-04T03:10:13;10.30;99.90
22568;DHT22;11450;50.818;4.382;2022-11-04T03:12:46;10.40;99.90
22568;DHT22;11450;50.818;4.382;2022-11-04T03:15:22;10.40;99.90
22568;DHT22;11450;50.818;4.382;2022-11-04T03:17:59;10.40;99.90
22568;DHT22;11450;50.818;4.382;2022-11-04T03:20:27;10.40;99.90
22568;DHT22;11450;50.818;4.382;2022-11-04T03:22:56;10.50;99.90
22568;DHT22;11450;50.818;4.382;2022-11-04T03:25:38;10.40;99.90
22568;DHT22;11450;50.818;4.382;2022-11-04T03:30:46;10.50;99.90
22568;DHT22;11450;50.818;4.382;2022-11-04T03:33:33;10.50;99.90
22568;DHT22;11450;50.818;4.382;2022-11-04T03:36:01;10.60;99.90
22568;DHT22;11450;50.818;4.382;2022-11-04T03:38:28;10.70;99.90
22568;DHT22;11450;50.818;4.382;2022-11-04T03:40:54;10.60;99.90
22568;DHT22;11450;50.818;4.382;2022-11-04T03:43:23;10.50;99.90
22568;DHT22;11450;50.818;4.382;2022-11-04T03:45:50;10.60;99.90
22568;DHT22;11450;50.818;4.382;2022-11-04T03:48:16;10.60;99.90
22568;DHT22;11450;50.818;4.382;2022-11-04T03:50:44;10.70;99.90
22568;DHT22;11450;50.818;4.382;2022-11-04T03:53:13;10.80;99.90
22568;DHT22;11450;50.818;4.382;2022-11-04T03:59:04;10.70;99.90
22568;DHT22;11450;50.818;4.382;2022-11-04T04:06:45;10.70;99.90
22568;DHT22;11450;50.818;4.382;2022-11-04T04:09:43;10.80;99.90
22568;DHT22;11450;50.818;4.382;2022-11-04T04:12:16;10.80;99.90
22568;DHT22;11450;50.818;4.382;2022-11-04T04:14:47;10.80;99.90
22568;DHT22;11450;50.818;4.382;2022-11-04T04:17:39;10.70;99.90
22568;DHT22;11450;50.818;4.382;2022-11-04T04:20:18;10.70;99.90
22568;DHT22;11450;50.818;4.382;2022-11-04T04:22:52;10.80;99.90
22568;DHT22;11450;50.818;4.382;2022-11-04T04:25:20;10.80;99.90
22568;DHT22;11450;50.818;4.382;2022-11-04T04:28:06;10.70;99.90
22568;DHT22;11450;50.818;4.382;2022-11-04T04:30:35;10.80;99.90
22568;DHT22;11450;50.818;4.382;2022-11-04T04:33:14;10.80;99.90
22568;DHT22;11450;50.818;4.382;2022-11-04T04:35:54;10.80;99.90
22568;DHT22;11450;50.818;4.382;2022-11-04T04:38:26;10.80;99.90
22568;DHT22;11450;50.818;4.382;2022-11-04T04:41:20;10.90;99.90
22568;DHT22;11450;50.818;4.382;2022-11-04T04:44:15;11.00;99.90
22568;DHT22;11450;50.818;4.382;2022-11-04T04:47:03;10.90;99.90
22568;DHT22;11450;50.818;4.382;2022-11-04T04:49:30;10.90;99.90
22568;DHT22;11450;50.818;4.382;2022-11-04T04:52:00;10.90;99.90
22568;DHT22;11450;50.818;4.382;2022-11-04T04:54:27;10.90;99.90
22568;DHT22;11450;50.818;4.382;2022-11-04T04:56:52;10.90;99.90
22568;DHT22;11450;50.818;4.382;2022-11-04T04:59:18;10.90;99.90
22568;DHT22;11450;50.818;4.382;2022-11-04T05:01:44;11.00;99.90
22568;DHT22;11450;50.818;4.382;2022-11-04T05:04:11;10.90;99.90
22568;DHT22;11450;50.818;4.382;2022-11-04T05:06:36;10.90;99.90
22568;DHT22;11450;50.818;4.382;2022-11-04T05:09:02;10.90;99.90
22568;DHT22;11450;50.818;4.382;2022-11-04T05:11:28;11.00;99.90
22568;DHT22;11450;50.818;4.382;2022-11-04T05:13:53;11.00;99.90
22568;DHT22;11450;50.818;4.382;2022-11-04T05:16:19;10.90;99.90
22568;DHT22;11450;50.818;4.382;2022-11-04T05:18:45;11.00;99.90
22568;DHT22;11450;50.818;4.382;2022-11-04T05:21:14;11.10;99.90
22568;DHT22;11450;50.818;4.382;2022-11-04T05:23:40;11.10;99.90
22568;DHT22;11450;50.818;4.382;2022-11-04T05:26:06;11.10;99.90
22568;DHT22;11450;50.818;4.382;2022-11-04T05:28:33;11.10;99.90
22568;DHT22;11450;50.818;4.382;2022-11-04T05:31:02;11.10;99.90
22568;DHT22;11450;50.818;4.382;2022-11-04T05:33:28;11.10;99.90
22568;DHT22;11450;50.818;4.382;2022-11-04T05:35:54;11.30;99.90
22568;DHT22;11450;50.818;4.382;2022-11-04T05:38:29;11.30;99.90
22568;DHT22;11450;50.818;4.382;2022-11-04T05:40:57;11.10;99.90
22568;DHT22;11450;50.818;4.382;2022-11-04T05:43:22;11.10;99.90
22568;DHT22;11450;50.818;4.382;2022-11-04T05:45:48;11.00;99.90
22568;DHT22;11450;50.818;4.382;2022-11-04T05:48:14;11.10;99.90
22568;DHT22;11450;50.818;4.382;2022-11-04T05:50:40;11.00;99.90
22568;DHT22;11450;50.818;4.382;2022-11-04T05:53:06;11.10;99.90
22568;DHT22;11450;50.818;4.382;2022-11-04T05:55:32;11.10;99.90
22568;DHT22;11450;50.818;4.382;2022-11-04T05:57:58;11.10;99.90
22568;DHT22;11450;50.818;4.382;2022-11-04T06:00:24;11.10;99.90
22568;DHT22;11450;50.818;4.382;2022-11-04T06:02:50;11.20;99.90
22568;DHT22;11450;50.818;4.382;2022-11-04T06:05:16;11.00;99.90
22568;DHT22;11450;50.818;4.382;2022-11-04T06:07:42;11.10;99.90
22568;DHT22;11450;50.818;4.382;2022-11-04T06:10:08;11.10;99.90
22568;DHT22;11450;50.818;4.382;2022-11-04T06:12:33;11.10;99.90
22568;DHT22;11450;50.818;4.382;2022-11-04T06:14:59;11.10;99.90
22568;DHT22;11450;50.818;4.382;2022-11-04T06:17:25;11.10;99.90
22568;DHT22;11450;50.818;4.382;2022-11-04T06:19:50;11.10;99.90
22568;DHT22;11450;50.818;4.382;2022-11-04T06:22:17;11.10;99.90
22568;DHT22;11450;50.818;4.382;2022-11-04T06:24:43;11.10;99.90
22568;DHT22;11450;50.818;4.382;2022-11-04T06:27:09;11.10;99.90
22568;DHT22;11450;50.818;4.382;2022-11-04T06:29:36;11.20;99.90
22568;DHT22;11450;50.818;4.382;2022-11-04T06:32:09;11.20;99.90
22568;DHT22;11450;50.818;4.382;2022-11-04T06:34:34;11.20;99.90
22568;DHT22;11450;50.818;4.382;2022-11-04T06:37:00;11.20;99.90
22568;DHT22;11450;50.818;4.382;2022-11-04T06:39:26;11.30;99.90
22568;DHT22;11450;50.818;4.382;2022-11-04T06:41:55;11.30;99.90
22568;DHT22;11450;50.818;4.382;2022-11-04T06:44:24;11.30;99.90
22568;DHT22;11450;50.818;4.382;2022-11-04T06:46:55;11.30;99.90
22568;DHT22;11450;50.818;4.382;2022-11-04T06:49:22;11.30;99.90
22568;DHT22;11450;50.818;4.382;2022-11-04T06:51:48;11.30;99.90
22568;DHT22;11450;50.818;4.382;2022-11-04T06:54:15;11.40;99.90
22568;DHT22;11450;50.818;4.382;2022-11-04T06:56:41;11.40;99.90
22568;DHT22;11450;50.818;4.382;2022-11-04T06:59:08;11.40;99.90
22568;DHT22;11450;50.818;4.382;2022-11-04T07:01:35;11.40;99.90
22568;DHT22;11450;50.818;4.382;2022-11-04T07:04:02;11.40;99.90
22568;DHT22;11450;50.818;4.382;2022-11-04T07:06:29;11.40;99.90
22568;DHT22;11450;50.818;4.382;2022-11-04T07:08:57;11.50;99.90
22568;DHT22;11450;50.818;4.382;2022-11-04T07:11:24;11.40;99.90
22568;DHT22;11450;50.818;4.382;2022-11-04T07:13:50;11.40;99.90
22568;DHT22;11450;50.818;4.382;2022-11-04T07:16:16;11.40;99.90
22568;DHT22;11450;50.818;4.382;2022-11-04T07:18:43;11.40;99.90
22568;DHT22;11450;50.818;4.382;2022-11-04T07:21:09;11.50;99.90
22568;DHT22;11450;50.818;4.382;2022-11-04T07:23:35;11.50;99.90
22568;DHT22;11450;50.818;4.382;2022-11-04T07:26:01;11.60;99.90
22568;DHT22;11450;50.818;4.382;2022-11-04T07:28:28;11.50;99.90
22568;DHT22;11450;50.818;4.382;2022-11-04T07:30:58;11.60;99.90
22568;DHT22;11450;50.818;4.382;2022-11-04T07:33:25;11.60;99.90
22568;DHT22;11450;50.818;4.382;2022-11-04T07:35:52;11.60;99.90
22568;DHT22;11450;50.818;4.382;2022-11-04T07:38:21;11.60;99.90
22568;DHT22;11450;50.818;4.382;2022-11-04T07:40:47;11.60;99.90
22568;DHT22;11450;50.818;4.382;2022-11-04T07:43:14;11.60;99.90
22568;DHT22;11450;50.818;4.382;2022-11-04T07:45:39;11.70;99.90
22568;DHT22;11450;50.818;4.382;2022-11-04T07:48:05;11.60;99.90
22568;DHT22;11450;50.818;4.382;2022-11-04T07:50:31;11.70;99.90
22568;DHT22;11450;50.818;4.382;2022-11-04T07:52:58;11.60;99.90
22568;DHT22;11450;50.818;4.382;2022-11-04T07:55:24;11.70;99.90
22568;DHT22;11450;50.818;4.382;2022-11-04T07:57:49;11.70;99.90
22568;DHT22;11450;50.818;4.382;2022-11-04T08:00:15;11.70;99.90
22568;DHT22;11450;50.818;4.382;2022-11-04T08:02:42;11.70;99.90
22568;DHT22;11450;50.818;4.382;2022-11-04T08:05:12;11.80;99.90
22568;DHT22;11450;50.818;4.382;2022-11-04T08:07:38;11.70;99.90
22568;DHT22;11450;50.818;4.382;2022-11-04T08:10:04;11.80;99.90
22568;DHT22;11450;50.818;4.382;2022-11-04T08:12:30;11.80;99.90
22568;DHT22;11450;50.818;4.382;2022-11-04T08:14:57;11.80;99.90
22568;DHT22;11450;50.818;4.382;2022-11-04T08:17:23;11.90;99.90
22568;DHT22;11450;50.818;4.382;2022-11-04T08:19:49;11.80;99.90
22568;DHT22;11450;50.818;4.382;2022-11-04T08:22:15;11.80;99.90
22568;DHT22;11450;50.818;4.382;2022-11-04T08:24:40;11.90;99.90
22568;DHT22;11450;50.818;4.382;2022-11-04T08:27:08;12.00;99.90
22568;DHT22;11450;50.818;4.382;2022-11-04T08:29:35;11.90;99.90
22568;DHT22;11450;50.818;4.382;2022-11-04T08:32:00;12.00;99.90
22568;DHT22;11450;50.818;4.382;2022-11-04T08:34:26;11.80;99.90
22568;DHT22;11450;50.818;4.382;2022-11-04T08:36:51;11.90;99.90
22568;DHT22;11450;50.818;4.382;2022-11-04T08:39:18;11.80;99.90
22568;DHT22;11450;50.818;4.382;2022-11-04T08:41:44;12.00;99.90
22568;DHT22;11450;50.818;4.382;2022-11-04T08:44:11;11.90;99.90
22568;DHT22;11450;50.818;4.382;2022-11-04T08:46:39;11.90;99.90
22568;DHT22;11450;50.818;4.382;2022-11-04T08:49:05;12.10;99.90
22568;DHT22;11450;50.818;4.382;2022-11-04T08:51:31;11.90;99.90
22568;DHT22;11450;50.818;4.382;2022-11-04T08:53:58;11.90;99.90
22568;DHT22;11450;50.818;4.382;2022-11-04T08:56:25;11.90;99.90
22568;DHT22;11450;50.818;4.382;2022-11-04T08:58:51;12.00;99.90
22568;DHT22;11450;50.818;4.382;2022-11-04T09:01:18;12.00;99.90
22568;DHT22;11450;50.818;4.382;2022-11-04T09:03:45;12.00;99.90
22568;DHT22;11450;50.818;4.382;2022-11-04T09:06:19;12.00;99.90
22568;DHT22;11450;50.818;4.382;2022-11-04T09:08:45;12.10;99.90
22568;DHT22;11450;50.818;4.382;2022-11-04T09:11:12;12.10;99.90
22568;DHT22;11450;50.818;4.382;2022-11-04T09:13:38;12.00;99.90
22568;DHT22;11450;50.818;4.382;2022-11-04T09:16:05;12.20;99.90
22568;DHT22;11450;50.818;4.382;2022-11-04T09:18:30;12.10;99.90
22568;DHT22;11450;50.818;4.382;2022-11-04T09:21:00;12.20;99.90
22568;DHT22;11450;50.818;4.382;2022-11-04T09:23:27;12.20;99.90
22568;DHT22;11450;50.818;4.382;2022-11-04T09:25:52;12.20;99.90
22568;DHT22;11450;50.818;4.382;2022-11-04T09:28:20;12.20;99.90
22568;DHT22;11450;50.818;4.382;2022-11-04T09:30:45;12.20;99.90
22568;DHT22;11450;50.818;4.382;2022-11-04T09:33:11;12.20;99.90
22568;DHT22;11450;50.818;4.382;2022-11-04T09:35:36;12.20;99.90
22568;DHT22;11450;50.818;4.382;2022-11-04T09:38:02;12.40;99.90
22568;DHT22;11450;50.818;4.382;2022-11-04T09:40:28;12.40;99.90
22568;DHT22;11450;50.818;4.382;2022-11-04T09:43:04;12.30;99.90
22568;DHT22;11450;50.818;4.382;2022-11-04T09:45:39;12.40;99.90
22568;DHT22;11450;50.818;4.382;2022-11-04T09:48:11;12.50;99.90
22568;DHT22;11450;50.818;4.382;2022-11-04T09:50:50;12.40;99.90
22568;DHT22;11450;50.818;4.382;2022-11-04T09:53:29;12.50;99.90
22568;DHT22;11450;50.818;4.382;2022-11-04T09:56:29;12.60;99.90
22568;DHT22;11450;50.818;4.382;2022-11-04T09:58:57;12.50;99.90
22568;DHT22;11450;50.818;4.382;2022-11-04T10:01:27;12.50;99.90
22568;DHT22;11450;50.818;4.382;2022-11-04T10:04:20;12.60;99.90
22568;DHT22;11450;50.818;4.382;2022-11-04T10:09:34;12.70;99.90
22568;DHT22;11450;50.818;4.382;2022-11-04T10:12:37;12.80;99.90
22568;DHT22;11450;50.818;4.382;2022-11-04T10:26:15;12.70;99.90
22568;DHT22;11450;50.818;4.382;2022-11-04T10:28:56;12.70;99.90
22568;DHT22;11450;50.818;4.382;2022-11-04T10:31:23;12.80;99.90
22568;DHT22;11450;50.818;4.382;2022-11-04T10:33:55;12.80;99.90
22568;DHT22;11450;50.818;4.382;2022-11-04T10:36:23;12.80;99.90
22568;DHT22;11450;50.818;4.382;2022-11-04T10:38:55;12.80;99.90
22568;DHT22;11450;50.818;4.382;2022-11-04T10:41:47;12.80;99.90
22568;DHT22;11450;50.818;4.382;2022-11-04T10:44:23;12.90;99.90
22568;DHT22;11450;50.818;4.382;2022-11-04T10:49:47;12.80;99.90
22568;DHT22;11450;50.818;4.382;2022-11-04T10:52:14;12.80;99.90
22568;DHT22;11450;50.818;4.382;2022-11-04T10:54:43;12.80;99.90
22568;DHT22;11450;50.818;4.382;2022-11-04T10:57:25;12.80;99.90
22568;DHT22;11450;50.818;4.382;2022-11-04T11:00:03;12.90;99.90
22568;DHT22;11450;50.818;4.382;2022-11-04T11:07:43;12.90;99.90
22568;DHT22;11450;50.818;4.382;2022-11-04T11:10:18;12.90;99.90
22568;DHT22;11450;50.818;4.382;2022-11-04T11:12:53;12.90;99.90
22568;DHT22;11450;50.818;4.382;2022-11-04T11:18:15;13.00;99.90
22568;DHT22;11450;50.818;4.382;2022-11-04T11:21:06;13.00;99.90
22568;DHT22;11450;50.818;4.382;2022-11-04T11:23:36;13.10;99.90
22568;DHT22;11450;50.818;4.382;2022-11-04T11:26:20;13.00;99.90
22568;DHT22;11450;50.818;4.382;2022-11-04T11:28:49;13.00;99.90
22568;DHT22;11450;50.818;4.382;2022-11-04T11:31:16;13.00;99.90
22568;DHT22;11450;50.818;4.382;2022-11-04T11:33:59;13.00;99.90
22568;DHT22;11450;50.818;4.382;2022-11-04T11:36:33;12.90;99.90
22568;DHT22;11450;50.818;4.382;2022-11-04T11:44:50;13.20;99.90
22568;DHT22;11450;50.818;4.382;2022-11-04T11:52:34;13.40;99.90
22568;DHT22;11450;50.818;4.382;2022-11-04T11:58:27;13.50;99.90
22568;DHT22;11450;50.818;4.382;2022-11-04T12:03:34;13.70;99.90
22568;DHT22;11450;50.818;4.382;2022-11-04T12:06:11;13.80;99.90
22568;DHT22;11450;50.818;4.382;2022-11-04T12:08:58;13.80;99.90
22568;DHT22;11450;50.818;4.382;2022-11-04T12:14:12;14.00;99.90
22568;DHT22;11450;50.818;4.382;2022-11-04T12:31:29;13.70;99.90
22568;DHT22;11450;50.818;4.382;2022-11-04T12:34:07;13.70;99.90
22568;DHT22;11450;50.818;4.382;2022-11-04T12:36:58;13.70;99.90
22568;DHT22;11450;50.818;4.382;2022-11-04T12:42:41;13.70;99.90
22568;DHT22;11450;50.818;4.382;2022-11-04T12:47:54;13.80;99.90
22568;DHT22;11450;50.818;4.382;2022-11-04T12:50:31;13.70;99.90
22568;DHT22;11450;50.818;4.382;2022-11-04T12:53:43;13.80;99.90
22568;DHT22;11450;50.818;4.382;2022-11-04T12:56:26;13.70;99.90
22568;DHT22;11450;50.818;4.382;2022-11-04T13:02:06;13.90;99.90
22568;DHT22;11450;50.818;4.382;2022-11-04T13:04:42;14.00;99.90
22568;DHT22;11450;50.818;4.382;2022-11-04T13:07:18;14.00;99.90
22568;DHT22;11450;50.818;4.382;2022-11-04T13:09:52;14.00;99.90
22568;DHT22;11450;50.818;4.382;2022-11-04T13:12:44;14.00;99.90
22568;DHT22;11450;50.818;4.382;2022-11-04T13:15:41;13.90;99.90
22568;DHT22;11450;50.818;4.382;2022-11-04T13:18:14;13.80;99.90
22568;DHT22;11450;50.818;4.382;2022-11-04T13:20:54;13.70;99.90
22568;DHT22;11450;50.818;4.382;2022-11-04T13:23:29;13.60;99.90
22568;DHT22;11450;50.818;4.382;2022-11-04T13:25:56;13.60;99.90
22568;DHT22;11450;50.818;4.382;2022-11-04T13:28:24;13.50;99.90
22568;DHT22;11450;50.818;4.382;2022-11-04T13:31:05;13.60;99.90
22568;DHT22;11450;50.818;4.382;2022-11-04T13:36:45;13.40;99.90
22568;DHT22;11450;50.818;4.382;2022-11-04T13:39:14;13.40;99.90
22568;DHT22;11450;50.818;4.382;2022-11-04T13:42:07;13.40;99.90
22568;DHT22;11450;50.818;4.382;2022-11-04T13:44:44;13.40;99.90
22568;DHT22;11450;50.818;4.382;2022-11-04T13:47:18;13.40;99.90
22568;DHT22;11450;50.818;4.382;2022-11-04T13:49:51;13.40;99.90
22568;DHT22;11450;50.818;4.382;2022-11-04T13:52:20;13.40;99.90
22568;DHT22;11450;50.818;4.382;2022-11-04T13:57:26;13.50;99.90
22568;DHT22;11450;50.818;4.382;2022-11-04T14:02:55;13.60;99.90
22568;DHT22;11450;50.818;4.382;2022-11-04T14:10:45;13.40;99.90
22568;DHT22;11450;50.818;4.382;2022-11-04T14:21:05;13.40;99.90
22568;DHT22;11450;50.818;4.382;2022-11-04T14:23:32;13.50;99.90
22568;DHT22;11450;50.818;4.382;2022-11-04T14:26:00;13.60;99.90
22568;DHT22;11450;50.818;4.382;2022-11-04T14:28:28;13.60;99.90
22568;DHT22;11450;50.818;4.382;2022-11-04T14:30:58;13.60;99.90
22568;DHT22;11450;50.818;4.382;2022-11-04T14:33:30;13.60;99.90
22568;DHT22;11450;50.818;4.382;2022-11-04T14:39:29;13.40;99.90
22568;DHT22;11450;50.818;4.382;2022-11-04T14:41:59;13.20;99.90
22568;DHT22;11450;50.818;4.382;2022-11-04T14:47:37;13.10;99.90
22568;DHT22;11450;50.818;4.382;2022-11-04T14:50:05;13.10;99.90
22568;DHT22;11450;50.818;4.382;2022-11-04T14:52:34;12.90;99.90
22568;DHT22;11450;50.818;4.382;2022-11-04T14:57:38;12.80;99.90
22568;DHT22;11450;50.818;4.382;2022-11-04T15:05:52;12.90;99.90
22568;DHT22;11450;50.818;4.382;2022-11-04T15:10:58;12.90;99.90
22568;DHT22;11450;50.818;4.382;2022-11-04T15:13:23;12.80;99.90
22568;DHT22;11450;50.818;4.382;2022-11-04T15:15:49;12.80;99.90
22568;DHT22;11450;50.818;4.382;2022-11-04T15:18:20;12.80;99.90
22568;DHT22;11450;50.818;4.382;2022-11-04T15:20:52;12.70;99.90
22568;DHT22;11450;50.818;4.382;2022-11-04T15:23:36;12.70;99.90
22568;DHT22;11450;50.818;4.382;2022-11-04T15:26:31;12.60;99.90
22568;DHT22;11450;50.818;4.382;2022-11-04T15:29:08;12.50;99.90
22568;DHT22;11450;50.818;4.382;2022-11-04T15:31:36;12.40;99.90
22568;DHT22;11450;50.818;4.382;2022-11-04T15:34:04;12.50;99.90
22568;DHT22;11450;50.818;4.382;2022-11-04T15:36:35;12.40;99.90
22568;DHT22;11450;50.818;4.382;2022-11-04T15:39:10;12.40;99.90
22568;DHT22;11450;50.818;4.382;2022-11-04T15:41:38;12.40;99.90
22568;DHT22;11450;50.818;4.382;2022-11-04T15:44:34;12.30;99.90
22568;DHT22;11450;50.818;4.382;2022-11-04T15:47:22;12.40;99.90
22568;DHT22;11450;50.818;4.382;2022-11-04T15:49:51;12.30;99.90
22568;DHT22;11450;50.818;4.382;2022-11-04T15:52:21;12.30;99.90
22568;DHT22;11450;50.818;4.382;2022-11-04T15:54:50;12.30;99.90
22568;DHT22;11450;50.818;4.382;2022-11-04T15:57:39;12.30;99.90
22568;DHT22;11450;50.818;4.382;2022-11-04T16:00:20;12.30;99.90
22568;DHT22;11450;50.818;4.382;2022-11-04T16:02:54;12.30;99.90
22568;DHT22;11450;50.818;4.382;2022-11-04T16:05:27;12.30;99.90
22568;DHT22;11450;50.818;4.382;2022-11-04T16:08:18;12.30;99.90
22568;DHT22;11450;50.818;4.382;2022-11-04T16:10:44;12.20;99.90
22568;DHT22;11450;50.818;4.382;2022-11-04T16:18:58;12.20;99.90
22568;DHT22;11450;50.818;4.382;2022-11-04T16:21:32;12.20;99.90
22568;DHT22;11450;50.818;4.382;2022-11-04T16:24:14;12.20;99.90
22568;DHT22;11450;50.818;4.382;2022-11-04T16:26:42;12.10;99.90
22568;DHT22;11450;50.818;4.382;2022-11-04T16:29:22;12.00;99.90
22568;DHT22;11450;50.818;4.382;2022-11-04T16:32:14;12.00;99.90
22568;DHT22;11450;50.818;4.382;2022-11-04T16:34:40;11.90;99.90
22568;DHT22;11450;50.818;4.382;2022-11-04T16:37:12;12.00;99.90
22568;DHT22;11450;50.818;4.382;2022-11-04T16:39:38;12.00;99.90
22568;DHT22;11450;50.818;4.382;2022-11-04T16:42:04;12.20;99.90
22568;DHT22;11450;50.818;4.382;2022-11-04T16:44:31;12.20;99.90
22568;DHT22;11450;50.818;4.382;2022-11-04T16:47:01;12.40;99.90
22568;DHT22;11450;50.818;4.382;2022-11-04T16:49:27;12.30;99.90
22568;DHT22;11450;50.818;4.382;2022-11-04T16:51:56;12.40;99.90
22568;DHT22;11450;50.818;4.382;2022-11-04T16:54:24;12.50;99.90
22568;DHT22;11450;50.818;4.382;2022-11-04T16:56:53;12.40;99.90
22568;DHT22;11450;50.818;4.382;2022-11-04T16:59:19;12.40;99.90
22568;DHT22;11450;50.818;4.382;2022-11-04T17:01:45;12.30;99.90
22568;DHT22;11450;50.818;4.382;2022-11-04T17:04:10;12.30;99.90
22568;DHT22;11450;50.818;4.382;2022-11-04T17:06:36;12.30;99.90
22568;DHT22;11450;50.818;4.382;2022-11-04T17:09:05;12.40;99.90
22568;DHT22;11450;50.818;4.382;2022-11-04T17:11:31;12.40;99.90
22568;DHT22;11450;50.818;4.382;2022-11-04T17:13:57;12.30;99.90
22568;DHT22;11450;50.818;4.382;2022-11-04T17:16:23;12.30;99.90
22568;DHT22;11450;50.818;4.382;2022-11-04T17:18:48;12.30;99.90
22568;DHT22;11450;50.818;4.382;2022-11-04T17:21:15;12.30;99.90
22568;DHT22;11450;50.818;4.382;2022-11-04T17:23:43;12.30;99.90
22568;DHT22;11450;50.818;4.382;2022-11-04T17:26:11;12.20;99.90
22568;DHT22;11450;50.818;4.382;2022-11-04T17:28:41;12.20;99.90
22568;DHT22;11450;50.818;4.382;2022-11-04T17:31:07;12.10;99.90
22568;DHT22;11450;50.818;4.382;2022-11-04T17:33:34;12.10;99.90
22568;DHT22;11450;50.818;4.382;2022-11-04T17:36:00;12.10;99.90
22568;DHT22;11450;50.818;4.382;2022-11-04T17:38:26;12.20;99.90
22568;DHT22;11450;50.818;4.382;2022-11-04T17:40:52;12.10;99.90
22568;DHT22;11450;50.818;4.382;2022-11-04T17:43:36;12.10;99.90
22568;DHT22;11450;50.818;4.382;2022-11-04T17:46:20;12.00;99.90
22568;DHT22;11450;50.818;4.382;2022-11-04T17:48:58;11.90;99.90
22568;DHT22;11450;50.818;4.382;2022-11-04T17:51:25;12.00;99.90
22568;DHT22;11450;50.818;4.382;2022-11-04T17:54:09;12.00;99.90
22568;DHT22;11450;50.818;4.382;2022-11-04T17:56:39;12.00;99.90
22568;DHT22;11450;50.818;4.382;2022-11-04T17:59:16;12.00;99.90
22568;DHT22;11450;50.818;4.382;2022-11-04T18:01:43;11.90;99.90
22568;DHT22;11450;50.818;4.382;2022-11-04T18:04:19;11.90;99.90
22568;DHT22;11450;50.818;4.382;2022-11-04T18:06:46;11.80;99.90
22568;DHT22;11450;50.818;4.382;2022-11-04T18:09:13;11.80;99.90
22568;DHT22;11450;50.818;4.382;2022-11-04T18:11:44;11.70;99.90
22568;DHT22;11450;50.818;4.382;2022-11-04T18:14:29;11.60;99.90
22568;DHT22;11450;50.818;4.382;2022-11-04T18:16:56;11.60;99.90